sensor_id;sensor_type;location;lat;lon;timestamp;temperature;humidity
18126;DHT22;53956;52.442;13.284;2023-05-07T00:02:04;12.80;99.90
18126;DHT22;53956;52.442;13.284;2023-05-07T00:04:31;12.80;99.90
18126;DHT22;53956;52.442;13.284;2023-05-07T00:07:02;12.70;99.90
18126;DHT22;53956;52.442;13.284;2023-05-07T00:09:28;12.70;99.90
18126;DHT22;53956;52.442;13.284;2023-05-07T00:11:55;12.70;99.90
18126;DHT22;53956;52.442;13.284;2023-05-07T00:14:22;12.60;99.90
18126;DHT22;53956;52.442;13.284;2023-05-07T00:16:50;12.50;99.90
18126;DHT22;53956;52.442;13.284;2023-05-07T00:19:16;12.70;99.90
18126;DHT22;53956;52.442;13.284;2023-05-07T00:21:43;12.70;99.90
18126;DHT22;53956;52.442;13.284;2023-05-07T00:24:10;12.60;99.90
18126;DHT22;53956;52.442;13.284;2023-05-07T00:26:36;12.30;99.90
18126;DHT22;53956;52.442;13.284;2023-05-07T00:29:03;12.30;99.90
18126;DHT22;53956;52.442;13.284;2023-05-07T00:31:29;12.60;99.90
18126;DHT22;53956;52.442;13.284;2023-05-07T00:33:57;12.70;99.90
18126;DHT22;53956;52.442;13.284;2023-05-07T00:36:25;12.60;99.90
18126;DHT22;53956;52.442;13.284;2023-05-07T00:38:53;12.20;99.90
18126;DHT22;53956;52.442;13.284;2023-05-07T00:41:20;12.10;99.90
18126;DHT22;53956;52.442;13.284;2023-05-07T00:43:46;11.80;99.90
18126;DHT22;53956;52.442;13.284;2023-05-07T00:46:13;12.40;99.90
18126;DHT22;53956;52.442;13.284;2023-05-07T00:48:41;12.40;99.90
18126;DHT22;53956;52.442;13.284;2023-05-07T00:51:09;12.20;99.90
18126;DHT22;53956;52.442;13.284;2023-05-07T00:53:37;12.20;99.90
18126;DHT22;53956;52.442;13.284;2023-05-07T00:56:05;12.30;99.90
18126;DHT22;53956;52.442;13.284;2023-05-07T00:58:32;12.80;99.90
18126;DHT22;53956;52.442;13.284;2023-05-07T01:00:59;12.70;99.90
18126;DHT22;53956;52.442;13.284;2023-05-07T01:03:26;12.30;99.90
18126;DHT22;53956;52.442;13.284;2023-05-07T01:05:54;12.00;99.90
18126;DHT22;53956;52.442;13.284;2023-05-07T01:08:24;12.20;99.90
18126;DHT22;53956;52.442;13.284;2023-05-07T01:10:54;12.00;99.90
18126;DHT22;53956;52.442;13.284;2023-05-07T01:13:21;12.10;99.90
18126;DHT22;53956;52.442;13.284;2023-05-07T01:15:49;12.20;99.90
18126;DHT22;53956;52.442;13.284;2023-05-07T01:18:16;12.70;99.90
18126;DHT22;53956;52.442;13.284;2023-05-07T01:20:43;12.40;99.90
18126;DHT22;53956;52.442;13.284;2023-05-07T01:23:12;12.20;99.90
18126;DHT22;53956;52.442;13.284;2023-05-07T01:25:38;12.00;99.90
18126;DHT22;53956;52.442;13.284;2023-05-07T01:28:07;12.00;99.90
18126;DHT22;53956;52.442;13.284;2023-05-07T01:30:44;12.00;99.90
18126;DHT22;53956;52.442;13.284;2023-05-07T01:33:15;12.10;99.90
18126;DHT22;53956;52.442;13.284;2023-05-07T01:35:46;12.10;99.90
18126;DHT22;53956;52.442;13.284;2023-05-07T01:38:15;12.50;99.90
18126;DHT22;53956;52.442;13.284;2023-05-07T01:40:43;12.50;99.90
18126;DHT22;53956;52.442;13.284;2023-05-07T01:43:10;12.80;99.90
18126;DHT22;53956;52.442;13.284;2023-05-07T01:45:38;12.70;99.90
18126;DHT22;53956;52.442;13.284;2023-05-07T01:48:06;12.60;99.90
18126;DHT22;53956;52.442;13.284;2023-05-07T01:50:33;12.80;99.90
18126;DHT22;53956;52.442;13.284;2023-05-07T01:53:01;12.60;99.90
18126;DHT22;53956;52.442;13.284;2023-05-07T01:55:29;12.70;99.90
18126;DHT22;53956;52.442;13.284;2023-05-07T01:57:57;12.50;99.90
18126;DHT22;53956;52.442;13.284;2023-05-07T02:00:24;12.60;99.90
18126;DHT22;53956;52.442;13.284;2023-05-07T02:02:51;12.60;99.90
18126;DHT22;53956;52.442;13.284;2023-05-07T02:05:30;12.50;99.90
18126;DHT22;53956;52.442;13.284;2023-05-07T02:08:02;12.40;99.90
18126;DHT22;53956;52.442;13.284;2023-05-07T02:10:32;12.50;99.90
18126;DHT22;53956;52.442;13.284;2023-05-07T02:12:58;12.40;99.90
18126;DHT22;53956;52.442;13.284;2023-05-07T02:15:27;12.30;99.90
18126;DHT22;53956;52.442;13.284;2023-05-07T02:17:58;12.50;99.90
18126;DHT22;53956;52.442;13.284;2023-05-07T02:20:26;12.30;99.90
18126;DHT22;53956;52.442;13.284;2023-05-07T02:22:53;12.40;99.90
18126;DHT22;53956;52.442;13.284;2023-05-07T02:25:20;12.60;99.90
18126;DHT22;53956;52.442;13.284;2023-05-07T02:27:48;12.50;99.90
18126;DHT22;53956;52.442;13.284;2023-05-07T02:30:16;12.60;99.90
18126;DHT22;53956;52.442;13.284;2023-05-07T02:32:43;12.20;99.90
18126;DHT22;53956;52.442;13.284;2023-05-07T02:35:10;12.40;99.90
18126;DHT22;53956;52.442;13.284;2023-05-07T02:37:36;12.70;99.90
18126;DHT22;53956;52.442;13.284;2023-05-07T02:40:05;12.60;99.90
18126;DHT22;53956;52.442;13.284;2023-05-07T02:42:32;12.60;99.90
18126;DHT22;53956;52.442;13.284;2023-05-07T02:45:00;12.70;99.90
18126;DHT22;53956;52.442;13.284;2023-05-07T02:47:29;12.70;99.90
18126;DHT22;53956;52.442;13.284;2023-05-07T02:49:57;12.70;99.90
18126;DHT22;53956;52.442;13.284;2023-05-07T02:52:24;12.50;99.90
18126;DHT22;53956;52.442;13.284;2023-05-07T02:54:50;12.60;99.90
18126;DHT22;53956;52.442;13.284;2023-05-07T02:57:17;12.60;99.90
18126;DHT22;53956;52.442;13.284;2023-05-07T02:59:44;12.50;99.90
18126;DHT22;53956;52.442;13.284;2023-05-07T03:02:14;12.00;99.90
18126;DHT22;53956;52.442;13.284;2023-05-07T03:04:42;12.20;99.90
18126;DHT22;53956;52.442;13.284;2023-05-07T03:07:08;12.40;99.90
18126;DHT22;53956;52.442;13.284;2023-05-07T03:09:35;12.30;99.90
18126;DHT22;53956;52.442;13.284;2023-05-07T03:12:02;12.40;99.90
18126;DHT22;53956;52.442;13.284;2023-05-07T03:14:29;11.90;99.90
18126;DHT22;53956;52.442;13.284;2023-05-07T03:16:56;11.90;99.90
18126;DHT22;53956;52.442;13.284;2023-05-07T03:19:24;11.80;99.90
18126;DHT22;53956;52.442;13.284;2023-05-07T03:21:51;11.70;99.90
18126;DHT22;53956;52.442;13.284;2023-05-07T03:24:17;11.70;99.90
18126;DHT22;53956;52.442;13.284;2023-05-07T03:26:44;12.00;99.90
18126;DHT22;53956;52.442;13.284;2023-05-07T03:29:11;12.10;99.90
18126;DHT22;53956;52.442;13.284;2023-05-07T03:31:38;12.40;99.90
18126;DHT22;53956;52.442;13.284;2023-05-07T03:34:04;12.40;99.90
18126;DHT22;53956;52.442;13.284;2023-05-07T03:36:32;12.30;99.90
18126;DHT22;53956;52.442;13.284;2023-05-07T03:38:59;12.60;99.90
18126;DHT22;53956;52.442;13.284;2023-05-07T03:41:34;12.30;99.90
18126;DHT22;53956;52.442;13.284;2023-05-07T03:44:01;12.20;99.90
18126;DHT22;53956;52.442;13.284;2023-05-07T03:46:27;12.50;99.90
18126;DHT22;53956;52.442;13.284;2023-05-07T03:48:54;12.00;99.90
18126;DHT22;53956;52.442;13.284;2023-05-07T03:51:21;12.20;99.90
18126;DHT22;53956;52.442;13.284;2023-05-07T03:53:49;12.40;99.90
18126;DHT22;53956;52.442;13.284;2023-05-07T03:56:18;12.10;99.90
18126;DHT22;53956;52.442;13.284;2023-05-07T03:58:47;12.30;99.90
18126;DHT22;53956;52.442;13.284;2023-05-07T04:01:14;11.90;99.90
18126;DHT22;53956;52.442;13.284;2023-05-07T04:03:41;12.00;99.90
18126;DHT22;53956;52.442;13.284;2023-05-07T04:06:08;12.10;99.90
18126;DHT22;53956;52.442;13.284;2023-05-07T04:08:35;12.20;99.90
18126;DHT22;53956;52.442;13.284;2023-05-07T04:11:05;12.30;99.90
18126;DHT22;53956;52.442;13.284;2023-05-07T04:13:33;11.90;99.90
18126;DHT22;53956;52.442;13.284;2023-05-07T04:16:02;12.10;99.90
18126;DHT22;53956;52.442;13.284;2023-05-07T04:18:29;12.20;99.90
18126;DHT22;53956;52.442;13.284;2023-05-07T04:20:56;12.30;99.90
18126;DHT22;53956;52.442;13.284;2023-05-07T04:23:23;12.10;99.90
18126;DHT22;53956;52.442;13.284;2023-05-07T04:25:50;12.00;99.90
18126;DHT22;53956;52.442;13.284;2023-05-07T04:28:23;12.10;99.90
18126;DHT22;53956;52.442;13.284;2023-05-07T04:30:50;12.00;99.90
18126;DHT22;53956;52.442;13.284;2023-05-07T04:33:19;11.90;99.90
18126;DHT22;53956;52.442;13.284;2023-05-07T04:35:47;12.10;99.90
18126;DHT22;53956;52.442;13.284;2023-05-07T04:38:14;11.90;99.90
18126;DHT22;53956;52.442;13.284;2023-05-07T04:40:42;11.90;99.90
18126;DHT22;53956;52.442;13.284;2023-05-07T04:43:11;12.10;99.90
18126;DHT22;53956;52.442;13.284;2023-05-07T04:45:45;12.10;99.90
18126;DHT22;53956;52.442;13.284;2023-05-07T04:48:12;12.00;99.90
18126;DHT22;53956;52.442;13.284;2023-05-07T04:50:41;12.10;99.90
18126;DHT22;53956;52.442;13.284;2023-05-07T04:53:09;12.00;99.90
18126;DHT22;53956;52.442;13.284;2023-05-07T04:55:35;11.90;99.90
18126;DHT22;53956;52.442;13.284;2023-05-07T04:58:03;11.80;99.90
18126;DHT22;53956;52.442;13.284;2023-05-07T05:00:32;11.60;99.90
18126;DHT22;53956;52.442;13.284;2023-05-07T05:03:03;11.70;99.90
18126;DHT22;53956;52.442;13.284;2023-05-07T05:05:30;11.40;99.90
18126;DHT22;53956;52.442;13.284;2023-05-07T05:07:58;11.70;99.90
18126;DHT22;53956;52.442;13.284;2023-05-07T05:10:25;11.60;99.90
18126;DHT22;53956;52.442;13.284;2023-05-07T05:12:51;11.60;99.90
18126;DHT22;53956;52.442;13.284;2023-05-07T05:15:20;11.40;99.90
18126;DHT22;53956;52.442;13.284;2023-05-07T05:17:47;11.50;99.90
18126;DHT22;53956;52.442;13.284;2023-05-07T05:20:16;11.40;99.90
18126;DHT22;53956;52.442;13.284;2023-05-07T05:22:43;11.90;99.90
18126;DHT22;53956;52.442;13.284;2023-05-07T05:25:12;11.50;99.90
18126;DHT22;53956;52.442;13.284;2023-05-07T05:27:39;11.80;99.90
18126;DHT22;53956;52.442;13.284;2023-05-07T05:30:06;11.80;99.90
18126;DHT22;53956;52.442;13.284;2023-05-07T05:32:34;11.70;99.90
18126;DHT22;53956;52.442;13.284;2023-05-07T05:35:01;11.80;99.90
18126;DHT22;53956;52.442;13.284;2023-05-07T05:37:30;12.00;99.90
18126;DHT22;53956;52.442;13.284;2023-05-07T05:39:58;12.00;99.90
18126;DHT22;53956;52.442;13.284;2023-05-07T05:42:28;11.70;99.90
18126;DHT22;53956;52.442;13.284;2023-05-07T05:44:55;12.00;99.90
18126;DHT22;53956;52.442;13.284;2023-05-07T05:47:22;11.80;99.90
18126;DHT22;53956;52.442;13.284;2023-05-07T05:49:50;11.50;99.90
18126;DHT22;53956;52.442;13.284;2023-05-07T05:52:17;11.30;99.90
18126;DHT22;53956;52.442;13.284;2023-05-07T05:54:45;12.00;99.90
18126;DHT22;53956;52.442;13.284;2023-05-07T05:57:12;12.20;99.90
18126;DHT22;53956;52.442;13.284;2023-05-07T05:59:39;12.40;99.90
18126;DHT22;53956;52.442;13.284;2023-05-07T06:02:06;12.30;99.90
18126;DHT22;53956;52.442;13.284;2023-05-07T06:04:33;12.70;99.90
18126;DHT22;53956;52.442;13.284;2023-05-07T06:07:00;12.80;99.90
18126;DHT22;53956;52.442;13.284;2023-05-07T06:09:27;12.60;99.90
18126;DHT22;53956;52.442;13.284;2023-05-07T06:11:55;12.50;99.90
18126;DHT22;53956;52.442;13.284;2023-05-07T06:14:22;12.50;99.90
18126;DHT22;53956;52.442;13.284;2023-05-07T06:16:48;12.70;99.90
18126;DHT22;53956;52.442;13.284;2023-05-07T06:19:15;12.90;99.90
18126;DHT22;53956;52.442;13.284;2023-05-07T06:21:44;13.10;99.90
18126;DHT22;53956;52.442;13.284;2023-05-07T06:24:11;12.90;99.90
18126;DHT22;53956;52.442;13.284;2023-05-07T06:26:38;13.00;99.90
18126;DHT22;53956;52.442;13.284;2023-05-07T06:29:06;13.00;99.90
18126;DHT22;53956;52.442;13.284;2023-05-07T06:31:33;13.20;99.90
18126;DHT22;53956;52.442;13.284;2023-05-07T06:34:03;13.20;99.90
18126;DHT22;53956;52.442;13.284;2023-05-07T06:36:34;12.90;99.90
18126;DHT22;53956;52.442;13.284;2023-05-07T06:39:08;12.20;99.90
18126;DHT22;53956;52.442;13.284;2023-05-07T06:41:36;12.40;99.90
18126;DHT22;53956;52.442;13.284;2023-05-07T06:44:09;12.50;99.90
18126;DHT22;53956;52.442;13.284;2023-05-07T06:46:41;12.30;99.90
18126;DHT22;53956;52.442;13.284;2023-05-07T06:49:08;12.40;99.90
18126;DHT22;53956;52.442;13.284;2023-05-07T06:51:35;12.50;99.90
18126;DHT22;53956;52.442;13.284;2023-05-07T06:54:03;12.10;99.90
18126;DHT22;53956;52.442;13.284;2023-05-07T06:56:31;12.50;99.90
18126;DHT22;53956;52.442;13.284;2023-05-07T06:58:59;12.70;99.90
18126;DHT22;53956;52.442;13.284;2023-05-07T07:01:30;12.90;99.90
18126;DHT22;53956;52.442;13.284;2023-05-07T07:03:59;12.70;99.90
18126;DHT22;53956;52.442;13.284;2023-05-07T07:06:26;12.30;99.90
18126;DHT22;53956;52.442;13.284;2023-05-07T07:08:54;12.40;99.90
18126;DHT22;53956;52.442;13.284;2023-05-07T07:11:21;12.50;99.90
18126;DHT22;53956;52.442;13.284;2023-05-07T07:13:47;12.30;99.90
18126;DHT22;53956;52.442;13.284;2023-05-07T07:16:15;12.40;99.90
18126;DHT22;53956;52.442;13.284;2023-05-07T07:18:43;12.90;99.90
18126;DHT22;53956;52.442;13.284;2023-05-07T07:21:10;12.50;99.90
18126;DHT22;53956;52.442;13.284;2023-05-07T07:23:37;12.70;99.90
18126;DHT22;53956;52.442;13.284;2023-05-07T07:26:04;13.00;99.90
18126;DHT22;53956;52.442;13.284;2023-05-07T07:28:32;13.00;99.90
18126;DHT22;53956;52.442;13.284;2023-05-07T07:30:58;12.90;99.90
18126;DHT22;53956;52.442;13.284;2023-05-07T07:33:25;13.10;99.90
18126;DHT22;53956;52.442;13.284;2023-05-07T07:35:55;13.20;99.90
18126;DHT22;53956;52.442;13.284;2023-05-07T07:38:22;13.40;99.90
18126;DHT22;53956;52.442;13.284;2023-05-07T07:40:49;13.20;99.90
18126;DHT22;53956;52.442;13.284;2023-05-07T07:43:16;13.20;99.90
18126;DHT22;53956;52.442;13.284;2023-05-07T07:45:43;13.10;99.90
18126;DHT22;53956;52.442;13.284;2023-05-07T07:48:11;13.70;99.90
18126;DHT22;53956;52.442;13.284;2023-05-07T07:50:38;14.10;99.90
18126;DHT22;53956;52.442;13.284;2023-05-07T07:53:07;14.40;99.10
18126;DHT22;53956;52.442;13.284;2023-05-07T07:55:38;14.10;98.70
18126;DHT22;53956;52.442;13.284;2023-05-07T07:58:05;13.70;99.90
18126;DHT22;53956;52.442;13.284;2023-05-07T08:00:33;14.10;99.90
18126;DHT22;53956;52.442;13.284;2023-05-07T08:03:00;14.50;97.90
18126;DHT22;53956;52.442;13.284;2023-05-07T08:05:33;15.00;97.60
18126;DHT22;53956;52.442;13.284;2023-05-07T08:08:00;14.50;97.70
18126;DHT22;53956;52.442;13.284;2023-05-07T08:10:32;14.70;98.10
18126;DHT22;53956;52.442;13.284;2023-05-07T08:13:06;14.60;97.60
18126;DHT22;53956;52.442;13.284;2023-05-07T08:15:35;14.50;97.50
18126;DHT22;53956;52.442;13.284;2023-05-07T08:18:03;14.90;96.50
18126;DHT22;53956;52.442;13.284;2023-05-07T08:20:30;14.90;95.60
18126;DHT22;53956;52.442;13.284;2023-05-07T08:22:57;14.90;94.70
18126;DHT22;53956;52.442;13.284;2023-05-07T08:25:25;15.30;95.40
18126;DHT22;53956;52.442;13.284;2023-05-07T08:27:54;15.40;93.20
18126;DHT22;53956;52.442;13.284;2023-05-07T08:30:21;15.50;92.60
18126;DHT22;53956;52.442;13.284;2023-05-07T08:32:48;15.70;91.30
18126;DHT22;53956;52.442;13.284;2023-05-07T08:35:14;16.00;92.30
18126;DHT22;53956;52.442;13.284;2023-05-07T08:37:41;15.40;91.90
18126;DHT22;53956;52.442;13.284;2023-05-07T08:40:08;15.10;92.90
18126;DHT22;53956;52.442;13.284;2023-05-07T08:42:36;14.80;94.50
18126;DHT22;53956;52.442;13.284;2023-05-07T08:45:09;14.80;94.80
18126;DHT22;53956;52.442;13.284;2023-05-07T08:47:42;14.80;95.10
18126;DHT22;53956;52.442;13.284;2023-05-07T08:50:10;14.90;94.30
18126;DHT22;53956;52.442;13.284;2023-05-07T08:52:37;15.10;93.20
18126;DHT22;53956;52.442;13.284;2023-05-07T08:55:07;15.00;93.20
18126;DHT22;53956;52.442;13.284;2023-05-07T08:57:34;14.90;93.70
18126;DHT22;53956;52.442;13.284;2023-05-07T09:00:02;15.10;93.10
18126;DHT22;53956;52.442;13.284;2023-05-07T09:02:32;15.00;93.80
18126;DHT22;53956;52.442;13.284;2023-05-07T09:04:59;14.90;93.30
18126;DHT22;53956;52.442;13.284;2023-05-07T09:07:26;14.80;94.00
18126;DHT22;53956;52.442;13.284;2023-05-07T09:09:53;15.00;93.70
18126;DHT22;53956;52.442;13.284;2023-05-07T09:12:20;14.90;93.90
18126;DHT22;53956;52.442;13.284;2023-05-07T09:14:47;15.10;92.10
18126;DHT22;53956;52.442;13.284;2023-05-07T09:17:15;14.90;93.40
18126;DHT22;53956;52.442;13.284;2023-05-07T09:19:43;14.90;93.20
18126;DHT22;53956;52.442;13.284;2023-05-07T09:22:10;15.10;94.20
18126;DHT22;53956;52.442;13.284;2023-05-07T09:24:53;15.10;94.00
18126;DHT22;53956;52.442;13.284;2023-05-07T09:27:23;15.10;93.20
18126;DHT22;53956;52.442;13.284;2023-05-07T09:29:50;15.20;93.10
18126;DHT22;53956;52.442;13.284;2023-05-07T09:32:17;15.10;93.00
18126;DHT22;53956;52.442;13.284;2023-05-07T09:34:46;15.20;93.60
18126;DHT22;53956;52.442;13.284;2023-05-07T09:37:15;15.40;93.80
18126;DHT22;53956;52.442;13.284;2023-05-07T09:39:44;15.40;91.00
18126;DHT22;53956;52.442;13.284;2023-05-07T09:42:13;15.60;90.50
18126;DHT22;53956;52.442;13.284;2023-05-07T09:44:41;15.50;91.30
18126;DHT22;53956;52.442;13.284;2023-05-07T09:47:16;15.30;91.90
18126;DHT22;53956;52.442;13.284;2023-05-07T09:49:47;15.10;92.70
18126;DHT22;53956;52.442;13.284;2023-05-07T09:52:18;15.50;91.30
18126;DHT22;53956;52.442;13.284;2023-05-07T09:54:50;15.60;92.70
18126;DHT22;53956;52.442;13.284;2023-05-07T09:57:22;15.30;92.70
18126;DHT22;53956;52.442;13.284;2023-05-07T09:59:56;15.40;90.30
18126;DHT22;53956;52.442;13.284;2023-05-07T10:02:27;15.10;92.50
18126;DHT22;53956;52.442;13.284;2023-05-07T10:04:57;15.10;92.50
18126;DHT22;53956;52.442;13.284;2023-05-07T10:07:29;15.00;93.40
18126;DHT22;53956;52.442;13.284;2023-05-07T10:10:03;15.30;93.80
18126;DHT22;53956;52.442;13.284;2023-05-07T10:12:35;15.20;92.20
18126;DHT22;53956;52.442;13.284;2023-05-07T10:15:08;15.30;92.70
18126;DHT22;53956;52.442;13.284;2023-05-07T10:17:36;15.30;92.70
18126;DHT22;53956;52.442;13.284;2023-05-07T10:20:06;15.20;92.60
18126;DHT22;53956;52.442;13.284;2023-05-07T10:22:37;15.10;93.10
18126;DHT22;53956;52.442;13.284;2023-05-07T10:25:07;15.10;92.00
18126;DHT22;53956;52.442;13.284;2023-05-07T10:27:36;15.20;91.00
18126;DHT22;53956;52.442;13.284;2023-05-07T10:30:12;15.40;91.10
18126;DHT22;53956;52.442;13.284;2023-05-07T10:32:45;15.30;91.90
18126;DHT22;53956;52.442;13.284;2023-05-07T10:35:25;15.60;90.60
18126;DHT22;53956;52.442;13.284;2023-05-07T10:37:53;15.70;89.90
18126;DHT22;53956;52.442;13.284;2023-05-07T10:40:22;15.70;90.30
18126;DHT22;53956;52.442;13.284;2023-05-07T10:42:55;15.90;89.90
18126;DHT22;53956;52.442;13.284;2023-05-07T10:45:23;15.50;89.90
18126;DHT22;53956;52.442;13.284;2023-05-07T10:48:09;15.50;90.00
18126;DHT22;53956;52.442;13.284;2023-05-07T10:50:39;15.50;88.50
18126;DHT22;53956;52.442;13.284;2023-05-07T10:53:23;15.60;89.10
18126;DHT22;53956;52.442;13.284;2023-05-07T10:56:26;15.40;89.90
18126;DHT22;53956;52.442;13.284;2023-05-07T10:59:35;15.30;91.50
18126;DHT22;53956;52.442;13.284;2023-05-07T11:02:23;15.60;89.20
18126;DHT22;53956;52.442;13.284;2023-05-07T11:05:19;15.80;87.80
18126;DHT22;53956;52.442;13.284;2023-05-07T11:07:55;15.60;87.70
18126;DHT22;53956;52.442;13.284;2023-05-07T11:10:50;15.60;87.90
18126;DHT22;53956;52.442;13.284;2023-05-07T11:13:42;15.70;88.20
18126;DHT22;53956;52.442;13.284;2023-05-07T11:16:18;16.00;88.00
18126;DHT22;53956;52.442;13.284;2023-05-07T11:18:47;16.20;86.30
18126;DHT22;53956;52.442;13.284;2023-05-07T11:21:34;16.20;86.70
18126;DHT22;53956;52.442;13.284;2023-05-07T11:24:18;16.30;87.00
18126;DHT22;53956;52.442;13.284;2023-05-07T11:26:57;16.70;85.80
18126;DHT22;53956;52.442;13.284;2023-05-07T11:29:25;16.60;85.10
18126;DHT22;53956;52.442;13.284;2023-05-07T11:32:06;16.80;84.90
18126;DHT22;53956;52.442;13.284;2023-05-07T11:34:42;16.90;85.50
18126;DHT22;53956;52.442;13.284;2023-05-07T11:37:11;17.00;87.00
18126;DHT22;53956;52.442;13.284;2023-05-07T11:39:46;16.70;84.20
18126;DHT22;53956;52.442;13.284;2023-05-07T11:42:25;17.00;87.00
18126;DHT22;53956;52.442;13.284;2023-05-07T11:44:52;17.10;83.90
18126;DHT22;53956;52.442;13.284;2023-05-07T11:47:20;17.00;85.60
18126;DHT22;53956;52.442;13.284;2023-05-07T11:49:47;17.10;85.30
18126;DHT22;53956;52.442;13.284;2023-05-07T11:52:14;17.30;83.80
18126;DHT22;53956;52.442;13.284;2023-05-07T11:54:44;17.40;82.50
18126;DHT22;53956;52.442;13.284;2023-05-07T11:57:16;17.40;81.20
18126;DHT22;53956;52.442;13.284;2023-05-07T11:59:43;17.40;81.90
18126;DHT22;53956;52.442;13.284;2023-05-07T12:02:10;17.30;82.40
18126;DHT22;53956;52.442;13.284;2023-05-07T12:04:40;17.40;81.80
18126;DHT22;53956;52.442;13.284;2023-05-07T12:07:11;17.50;81.30
18126;DHT22;53956;52.442;13.284;2023-05-07T12:09:38;17.60;82.20
18126;DHT22;53956;52.442;13.284;2023-05-07T12:12:05;17.40;81.10
18126;DHT22;53956;52.442;13.284;2023-05-07T12:14:37;17.40;81.00
18126;DHT22;53956;52.442;13.284;2023-05-07T12:17:05;17.50;80.90
18126;DHT22;53956;52.442;13.284;2023-05-07T12:19:33;17.30;81.60
18126;DHT22;53956;52.442;13.284;2023-05-07T12:22:01;17.20;80.70
18126;DHT22;53956;52.442;13.284;2023-05-07T12:24:28;17.00;81.00
18126;DHT22;53956;52.442;13.284;2023-05-07T12:26:55;17.20;80.60
18126;DHT22;53956;52.442;13.284;2023-05-07T12:29:22;16.90;80.50
18126;DHT22;53956;52.442;13.284;2023-05-07T12:31:50;17.20;81.70
18126;DHT22;53956;52.442;13.284;2023-05-07T12:34:17;17.40;82.30
18126;DHT22;53956;52.442;13.284;2023-05-07T12:36:44;17.50;81.00
18126;DHT22;53956;52.442;13.284;2023-05-07T12:39:10;17.30;80.50
18126;DHT22;53956;52.442;13.284;2023-05-07T12:41:52;17.20;79.80
18126;DHT22;53956;52.442;13.284;2023-05-07T12:44:21;17.10;80.70
18126;DHT22;53956;52.442;13.284;2023-05-07T12:46:48;17.00;79.90
18126;DHT22;53956;52.442;13.284;2023-05-07T12:49:16;16.90;81.40
18126;DHT22;53956;52.442;13.284;2023-05-07T12:51:43;16.90;80.00
18126;DHT22;53956;52.442;13.284;2023-05-07T12:54:10;17.00;81.80
18126;DHT22;53956;52.442;13.284;2023-05-07T12:56:36;17.10;80.80
18126;DHT22;53956;52.442;13.284;2023-05-07T12:59:03;17.10;80.50
18126;DHT22;53956;52.442;13.284;2023-05-07T13:01:30;17.20;80.00
18126;DHT22;53956;52.442;13.284;2023-05-07T13:04:00;17.00;80.10
18126;DHT22;53956;52.442;13.284;2023-05-07T13:06:30;17.10;82.80
18126;DHT22;53956;52.442;13.284;2023-05-07T13:08:56;17.10;81.20
18126;DHT22;53956;52.442;13.284;2023-05-07T13:11:23;17.40;80.60
18126;DHT22;53956;52.442;13.284;2023-05-07T13:13:50;17.30;79.30
18126;DHT22;53956;52.442;13.284;2023-05-07T13:16:17;17.30;78.90
18126;DHT22;53956;52.442;13.284;2023-05-07T13:18:43;17.40;78.50
18126;DHT22;53956;52.442;13.284;2023-05-07T13:21:11;17.30;78.70
18126;DHT22;53956;52.442;13.284;2023-05-07T13:23:40;17.50;79.80
18126;DHT22;53956;52.442;13.284;2023-05-07T13:26:06;17.50;78.80
18126;DHT22;53956;52.442;13.284;2023-05-07T13:28:33;17.40;78.20
18126;DHT22;53956;52.442;13.284;2023-05-07T13:31:00;17.50;79.50
18126;DHT22;53956;52.442;13.284;2023-05-07T13:33:28;17.70;80.60
18126;DHT22;53956;52.442;13.284;2023-05-07T13:35:55;17.70;79.60
18126;DHT22;53956;52.442;13.284;2023-05-07T13:38:22;17.50;79.20
18126;DHT22;53956;52.442;13.284;2023-05-07T13:40:50;17.50;77.90
18126;DHT22;53956;52.442;13.284;2023-05-07T13:43:17;17.70;78.40
18126;DHT22;53956;52.442;13.284;2023-05-07T13:45:44;17.60;77.40
18126;DHT22;53956;52.442;13.284;2023-05-07T13:48:10;17.50;77.60
18126;DHT22;53956;52.442;13.284;2023-05-07T13:50:37;17.70;78.90
18126;DHT22;53956;52.442;13.284;2023-05-07T13:53:04;17.80;78.10
18126;DHT22;53956;52.442;13.284;2023-05-07T13:55:30;17.70;78.10
18126;DHT22;53956;52.442;13.284;2023-05-07T13:58:00;17.60;78.40
18126;DHT22;53956;52.442;13.284;2023-05-07T14:00:28;17.50;79.60
18126;DHT22;53956;52.442;13.284;2023-05-07T14:02:55;17.40;78.20
18126;DHT22;53956;52.442;13.284;2023-05-07T14:05:23;17.60;77.90
18126;DHT22;53956;52.442;13.284;2023-05-07T14:07:51;17.60;78.20
18126;DHT22;53956;52.442;13.284;2023-05-07T14:10:18;17.50;78.40
18126;DHT22;53956;52.442;13.284;2023-05-07T14:12:45;17.30;77.90
18126;DHT22;53956;52.442;13.284;2023-05-07T14:15:15;17.30;77.80
18126;DHT22;53956;52.442;13.284;2023-05-07T14:17:42;17.50;78.60
18126;DHT22;53956;52.442;13.284;2023-05-07T14:20:09;17.60;77.60
18126;DHT22;53956;52.442;13.284;2023-05-07T14:22:36;17.50;77.60
18126;DHT22;53956;52.442;13.284;2023-05-07T14:25:04;17.60;78.60
18126;DHT22;53956;52.442;13.284;2023-05-07T14:27:31;17.50;77.40
18126;DHT22;53956;52.442;13.284;2023-05-07T14:29:57;17.50;77.20
18126;DHT22;53956;52.442;13.284;2023-05-07T14:32:25;17.70;77.70
18126;DHT22;53956;52.442;13.284;2023-05-07T14:34:52;17.80;78.00
18126;DHT22;53956;52.442;13.284;2023-05-07T14:37:18;17.70;78.70
18126;DHT22;53956;52.442;13.284;2023-05-07T14:39:45;17.60;76.90
18126;DHT22;53956;52.442;13.284;2023-05-07T14:42:12;17.60;77.60
18126;DHT22;53956;52.442;13.284;2023-05-07T14:44:39;17.60;77.70
18126;DHT22;53956;52.442;13.284;2023-05-07T14:47:07;17.90;77.70
18126;DHT22;53956;52.442;13.284;2023-05-07T14:49:35;18.00;77.30
18126;DHT22;53956;52.442;13.284;2023-05-07T14:52:03;18.10;76.90
18126;DHT22;53956;52.442;13.284;2023-05-07T14:54:33;17.90;76.60
18126;DHT22;53956;52.442;13.284;2023-05-07T14:57:00;18.00;77.10
18126;DHT22;53956;52.442;13.284;2023-05-07T14:59:26;17.90;77.20
18126;DHT22;53956;52.442;13.284;2023-05-07T15:01:54;18.10;77.00
18126;DHT22;53956;52.442;13.284;2023-05-07T15:04:20;18.10;77.00
18126;DHT22;53956;52.442;13.284;2023-05-07T15:06:48;18.20;75.70
18126;DHT22;53956;52.442;13.284;2023-05-07T15:09:15;18.10;76.30
18126;DHT22;53956;52.442;13.284;2023-05-07T15:11:42;17.70;77.90
18126;DHT22;53956;52.442;13.284;2023-05-07T15:14:08;17.60;76.40
18126;DHT22;53956;52.442;13.284;2023-05-07T15:16:35;17.60;78.00
18126;DHT22;53956;52.442;13.284;2023-05-07T15:19:02;17.80;77.90
18126;DHT22;53956;52.442;13.284;2023-05-07T15:21:28;17.50;78.60
18126;DHT22;53956;52.442;13.284;2023-05-07T15:23:57;17.30;79.10
18126;DHT22;53956;52.442;13.284;2023-05-07T15:26:24;17.10;78.80